Palermo, Italy
Current Conditions -  °F | °C
As of 11:50 PM on Tuesday 25 Nov 2014 (Local Time) from LICJ Reporting Station
Few Clouds Few Clouds  
Wind Chill: 18°   Ceiling: Unl
Heat Index: 18°   Visibility: 6mi
Dew Point: 16°   Wind: 7mph
Humidity: 88%   Direction: 190°S
Pressure: 30.09"   Gusts: NA
Location:  38.12°N, 13.36°E
Report Text: LICJ 252250Z 19006KT 9999 FEW025 18/16 Q1019
Loading
Personal Weather Stations






























Interactive Weather Map New forecast layout! Learn more

10-Day Weather Forecast

Advertisements
Track Severe Weather on mobile